createdAt,value
2023-03-02T00:01:03.841Z,10.52
2023-03-02T00:03:33.506Z,11.68
2023-03-02T00:06:01.963Z,12.13
2023-03-02T00:08:29.968Z,10.35
2023-03-02T00:11:00.883Z,10.20
2023-03-02T00:13:31.163Z,10.10
2023-03-02T00:16:00.252Z,11.88
2023-03-02T00:18:28.051Z,11.30
2023-03-02T00:20:55.811Z,13.30
2023-03-02T00:23:23.486Z,10.80
2023-03-02T00:25:51.226Z,11.15
2023-03-02T00:28:18.913Z,9.95
2023-03-02T00:30:46.776Z,10.85
2023-03-02T00:33:16.170Z,11.13
2023-03-02T00:35:43.879Z,10.13
2023-03-02T00:38:11.608Z,12.57
2023-03-02T00:40:39.337Z,10.77
2023-03-02T00:43:07.045Z,10.98
2023-03-02T00:45:34.755Z,11.45
2023-03-02T00:48:02.421Z,12.73
2023-03-02T00:50:31.576Z,11.18
2023-03-02T00:52:59.262Z,11.60
2023-03-02T00:55:26.941Z,13.68
2023-03-02T00:57:55.904Z,11.52
2023-03-02T01:00:24.372Z,12.00
2023-03-02T01:02:52.247Z,10.95
2023-03-02T01:05:20.071Z,12.35
2023-03-02T01:07:49.682Z,10.45
2023-03-02T01:10:17.826Z,11.65
2023-03-02T01:12:45.522Z,10.70
2023-03-02T01:15:13.858Z,11.57
2023-03-02T01:17:42.912Z,9.90
2023-03-02T01:20:11.985Z,10.43
2023-03-02T01:22:39.663Z,11.98
2023-03-02T01:25:09.174Z,11.95
2023-03-02T01:27:36.874Z,13.43
2023-03-02T01:30:05.286Z,11.45
2023-03-02T01:32:33.140Z,13.15
2023-03-02T01:35:00.885Z,10.77
2023-03-02T01:37:28.681Z,10.57
2023-03-02T01:39:56.440Z,12.18
2023-03-02T01:42:25.595Z,10.35
2023-03-02T01:44:57.084Z,12.10
2023-03-02T01:47:27.927Z,10.70
2023-03-02T01:49:59.965Z,10.15
2023-03-02T01:52:28.492Z,10.85
2023-03-02T01:55:00.072Z,11.43
2023-03-02T01:57:33.912Z,11.07
2023-03-02T02:00:08.436Z,10.68
2023-03-02T02:02:36.922Z,10.95
2023-03-02T02:05:05.556Z,11.48
2023-03-02T02:07:33.277Z,11.73
2023-03-02T02:10:01.798Z,12.75
2023-03-02T02:12:31.186Z,11.80
2023-03-02T02:15:00.800Z,9.55
2023-03-02T02:17:30.273Z,12.52
2023-03-02T02:20:08.950Z,13.15
2023-03-02T02:22:49.075Z,11.88
2023-03-02T02:25:27.003Z,9.63
2023-03-02T02:27:57.461Z,9.85
2023-03-02T02:30:26.426Z,13.13
2023-03-02T02:32:56.409Z,11.43
2023-03-02T02:35:28.374Z,10.70
2023-03-02T02:37:59.456Z,8.60
2023-03-02T02:40:46.403Z,10.85
2023-03-02T02:43:20.490Z,10.73
2023-03-02T02:45:50.213Z,11.15
2023-03-02T02:48:20.444Z,10.98
2023-03-02T02:50:48.626Z,9.88
2023-03-02T02:53:20.635Z,9.55
2023-03-02T02:55:50.647Z,10.27
2023-03-02T02:58:29.381Z,9.43
2023-03-02T03:00:57.156Z,10.77
2023-03-02T03:03:30.990Z,10.77
2023-03-02T03:06:00.170Z,12.30
2023-03-02T03:08:55.777Z,11.15
2023-03-02T03:11:26.431Z,11.50
2023-03-02T03:14:06.390Z,11.63
2023-03-02T03:16:35.451Z,9.60
2023-03-02T03:19:09.295Z,13.45
2023-03-02T03:21:37.290Z,9.98
2023-03-02T03:24:05.436Z,12.70
2023-03-02T03:26:33.520Z,11.18
2023-03-02T03:29:03.801Z,11.13
2023-03-02T03:31:31.476Z,12.07
2023-03-02T03:34:01.056Z,10.32
2023-03-02T03:36:29.844Z,12.00
2023-03-02T03:38:58.330Z,10.32
2023-03-02T03:41:26.430Z,10.55
2023-03-02T03:43:54.438Z,11.02
2023-03-02T03:46:23.680Z,9.82
2023-03-02T03:48:51.481Z,9.05
2023-03-02T03:51:19.451Z,11.00
2023-03-02T03:53:57.249Z,9.27
2023-03-02T03:56:24.960Z,13.60
2023-03-02T03:58:53.993Z,10.70
2023-03-02T04:01:23.360Z,10.57
2023-03-02T04:03:51.127Z,9.77
2023-03-02T04:06:19.270Z,8.52
2023-03-02T04:08:46.973Z,11.55
2023-03-02T04:11:14.691Z,10.75
2023-03-02T04:13:42.432Z,10.35
2023-03-02T04:16:10.224Z,10.48
2023-03-02T04:18:39.351Z,9.88
2023-03-02T04:21:07.124Z,9.13
2023-03-02T04:23:34.800Z,10.60
2023-03-02T04:26:05.054Z,8.05
2023-03-02T04:28:33.101Z,13.77
2023-03-02T04:31:01.005Z,10.65
2023-03-02T04:33:28.803Z,10.38
2023-03-02T04:35:58.088Z,9.70
2023-03-02T04:38:29.675Z,9.25
2023-03-02T04:40:58.198Z,9.25
2023-03-02T04:43:26.618Z,11.52
2023-03-02T04:45:55.336Z,10.60
2023-03-02T04:48:23.499Z,9.50
2023-03-02T04:50:51.212Z,10.02
2023-03-02T04:53:20.308Z,10.45
2023-03-02T04:55:48.519Z,10.07
2023-03-02T04:58:16.330Z,9.85
2023-03-02T05:00:44.068Z,9.30
2023-03-02T05:03:11.900Z,9.10
2023-03-02T05:05:39.756Z,8.57
2023-03-02T05:08:07.511Z,9.82
2023-03-02T05:10:36.600Z,8.30
2023-03-02T05:13:05.759Z,9.73
2023-03-02T05:15:36.310Z,9.30
2023-03-02T05:18:05.842Z,10.02
2023-03-02T05:20:34.382Z,11.35
2023-03-02T05:23:05.146Z,9.63
2023-03-02T05:25:34.657Z,10.35
2023-03-02T05:28:04.486Z,11.18
2023-03-02T05:30:37.400Z,11.63
2023-03-02T05:33:05.315Z,9.77
2023-03-02T05:35:33.092Z,11.55
2023-03-02T05:38:00.820Z,12.45
2023-03-02T05:40:28.573Z,9.85
2023-03-02T05:42:56.343Z,12.90
2023-03-02T05:45:28.178Z,9.55
2023-03-02T05:47:56.479Z,11.60
2023-03-02T05:50:24.875Z,10.30
2023-03-02T05:52:52.638Z,9.88
2023-03-02T05:55:21.036Z,11.38
2023-03-02T05:57:49.724Z,10.35
2023-03-02T06:00:18.905Z,10.32
2023-03-02T06:02:48.807Z,10.70
2023-03-02T06:05:18.921Z,11.15
2023-03-02T06:07:47.050Z,11.07
2023-03-02T06:10:15.441Z,9.13
2023-03-02T06:12:43.356Z,9.88
2023-03-02T06:15:11.419Z,10.15
2023-03-02T06:17:39.414Z,12.90
2023-03-02T06:20:10.886Z,12.68
2023-03-02T06:22:41.113Z,10.13
2023-03-02T06:25:10.105Z,11.10
2023-03-02T06:27:41.577Z,13.05
2023-03-02T06:30:14.211Z,12.27
2023-03-02T06:32:42.352Z,15.57
2023-03-02T06:35:13.150Z,12.10
2023-03-02T06:37:44.073Z,11.82
2023-03-02T06:40:13.953Z,14.45
2023-03-02T06:42:43.074Z,12.15
2023-03-02T06:45:12.267Z,10.98
2023-03-02T06:47:40.122Z,12.52
2023-03-02T06:50:08.502Z,10.05
2023-03-02T06:52:40.454Z,11.48
2023-03-02T06:55:09.197Z,13.70
2023-03-02T06:57:37.138Z,12.43
2023-03-02T07:00:09.999Z,13.65
2023-03-02T07:02:38.455Z,10.18
2023-03-02T07:05:07.444Z,9.45
2023-03-02T07:07:35.225Z,12.63
2023-03-02T07:10:04.944Z,13.85
2023-03-02T07:12:32.675Z,13.88
2023-03-02T07:15:00.459Z,10.55
2023-03-02T07:17:28.198Z,12.55
2023-03-02T07:19:55.858Z,11.18
2023-03-02T07:22:23.553Z,9.77
2023-03-02T07:24:51.236Z,11.75
2023-03-02T07:27:20.347Z,10.73
2023-03-02T07:29:48.131Z,16.52
2023-03-02T07:32:15.919Z,12.85
2023-03-02T07:34:43.674Z,11.82
2023-03-02T07:37:11.428Z,14.38
2023-03-02T07:39:39.153Z,12.60
2023-03-02T07:42:08.861Z,15.57
2023-03-02T07:44:38.047Z,13.00
2023-03-02T07:47:06.055Z,13.77
2023-03-02T07:49:35.332Z,14.60
2023-03-02T07:52:03.078Z,14.80
2023-03-02T07:54:30.906Z,14.27
2023-03-02T07:56:59.143Z,13.43
2023-03-02T07:59:28.369Z,16.13
2023-03-02T08:01:58.218Z,16.23
2023-03-02T08:04:26.881Z,18.50
2023-03-02T08:06:54.626Z,14.82
2023-03-02T08:09:22.347Z,17.75
2023-03-02T08:11:50.584Z,18.25
2023-03-02T08:14:18.373Z,14.93
2023-03-02T08:16:46.088Z,15.82
2023-03-02T08:19:15.210Z,16.30
2023-03-02T08:21:43.666Z,18.48
2023-03-02T08:24:11.850Z,15.88
2023-03-02T08:26:39.951Z,15.95
2023-03-02T08:29:08.126Z,14.45
2023-03-02T08:31:36.205Z,14.85
2023-03-02T08:34:04.186Z,14.75
2023-03-02T08:36:33.496Z,16.15
2023-03-02T08:39:01.333Z,14.07
2023-03-02T08:41:29.128Z,15.20
2023-03-02T08:43:57.189Z,15.13
2023-03-02T08:46:24.868Z,16.70
2023-03-02T08:48:52.697Z,13.93
2023-03-02T08:51:23.022Z,12.18
2023-03-02T08:53:55.107Z,13.85
2023-03-02T08:56:25.352Z,16.48
2023-03-02T08:58:54.701Z,13.20
2023-03-02T09:01:25.073Z,12.48
2023-03-02T09:03:53.579Z,11.43
2023-03-02T09:06:21.735Z,13.45
2023-03-02T09:08:50.199Z,11.65
2023-03-02T09:11:19.469Z,12.88
2023-03-02T09:13:47.145Z,13.18
2023-03-02T09:16:15.869Z,10.57
2023-03-02T09:18:43.656Z,13.02
2023-03-02T09:21:14.770Z,12.45
2023-03-02T09:23:42.848Z,11.57
2023-03-02T09:26:10.610Z,13.35
2023-03-02T09:28:39.855Z,12.82
2023-03-02T09:31:09.485Z,14.27
2023-03-02T09:33:37.243Z,11.55
2023-03-02T09:36:07.796Z,12.60
2023-03-02T09:38:35.502Z,12.48
2023-03-02T09:41:37.871Z,12.35
2023-03-02T09:44:20.569Z,16.50
2023-03-02T09:49:29.527Z,11.75
2023-03-02T09:52:11.579Z,14.48
2023-03-02T09:54:41.185Z,11.57
2023-03-02T09:57:22.150Z,11.52
2023-03-02T10:00:03.754Z,15.05
2023-03-02T10:02:38.500Z,11.38
2023-03-02T10:05:14.403Z,10.65
2023-03-02T10:07:42.192Z,12.63
2023-03-02T10:10:22.651Z,12.13
2023-03-02T10:13:02.100Z,14.43
2023-03-02T10:15:35.670Z,12.35
2023-03-02T10:18:14.719Z,13.55
2023-03-02T10:20:49.557Z,12.82
2023-03-02T10:23:37.488Z,13.82
2023-03-02T10:26:16.638Z,10.85
2023-03-02T10:28:49.660Z,14.30
2023-03-02T10:31:25.866Z,12.77
2023-03-02T10:33:54.036Z,10.10
2023-03-02T10:36:25.780Z,13.00
2023-03-02T10:38:55.115Z,12.40
2023-03-02T10:41:27.301Z,12.52
2023-03-02T10:43:59.416Z,11.15
2023-03-02T10:46:39.292Z,11.52
2023-03-02T10:49:07.052Z,15.98
2023-03-02T10:51:35.753Z,11.82
2023-03-02T10:54:08.506Z,11.50
2023-03-02T10:56:36.562Z,14.30
2023-03-02T10:59:14.609Z,14.40
2023-03-02T11:01:43.812Z,13.85
2023-03-02T11:04:16.044Z,11.32
2023-03-02T11:06:43.818Z,12.05
2023-03-02T11:09:15.637Z,11.95
2023-03-02T11:11:54.315Z,9.95
2023-03-02T11:14:23.514Z,10.40
2023-03-02T11:16:54.044Z,12.18
2023-03-02T11:19:30.853Z,12.45
2023-03-02T11:22:04.165Z,11.88
2023-03-02T11:24:39.970Z,10.82
2023-03-02T11:27:13.871Z,11.55
2023-03-02T11:29:45.395Z,14.43
2023-03-02T11:32:18.765Z,11.82
2023-03-02T11:34:50.574Z,11.10
2023-03-02T11:37:23.055Z,11.38
2023-03-02T11:45:09.950Z,10.32
2023-03-02T11:47:39.195Z,12.60
2023-03-02T11:50:11.499Z,10.25
2023-03-02T11:52:42.876Z,14.35
2023-03-02T11:55:18.746Z,11.05
2023-03-02T11:57:49.614Z,10.98
2023-03-02T12:00:28.307Z,11.38
2023-03-02T12:03:02.324Z,10.18
2023-03-02T12:05:32.287Z,11.60
2023-03-02T12:08:01.254Z,12.40
2023-03-02T12:10:34.447Z,12.95
2023-03-02T12:13:14.804Z,12.15
2023-03-02T12:15:45.337Z,10.88
2023-03-02T12:18:32.298Z,10.25
2023-03-02T12:21:03.541Z,10.02
2023-03-02T12:23:33.516Z,8.68
2023-03-02T12:26:09.476Z,11.93
2023-03-02T12:28:39.671Z,10.50
2023-03-02T12:31:11.392Z,17.35
2023-03-02T12:33:43.663Z,11.30
2023-03-02T12:36:17.504Z,9.98
2023-03-02T12:38:53.978Z,8.82
2023-03-02T12:41:51.284Z,11.43
2023-03-02T12:44:33.373Z,9.30
2023-03-02T12:47:03.089Z,8.65
2023-03-02T12:49:46.165Z,9.18
2023-03-02T12:52:24.115Z,7.63
2023-03-02T12:55:01.515Z,10.88
2023-03-02T12:57:29.507Z,13.13
2023-03-02T12:59:59.253Z,8.82
2023-03-02T13:02:29.500Z,7.65
2023-03-02T13:05:00.130Z,10.63
2023-03-02T13:07:31.087Z,9.55
2023-03-02T13:10:00.286Z,8.57
2023-03-02T13:12:29.412Z,10.88
2023-03-02T13:14:59.228Z,7.57
2023-03-02T13:17:30.948Z,7.57
2023-03-02T13:20:02.686Z,9.70
2023-03-02T13:22:30.910Z,8.50
2023-03-02T13:25:00.502Z,7.70
2023-03-02T13:27:29.059Z,9.40
2023-03-02T13:29:57.938Z,8.27
2023-03-02T13:32:28.229Z,7.47
2023-03-02T13:34:58.805Z,7.28
2023-03-02T13:37:40.483Z,8.02
2023-03-02T13:40:30.918Z,8.98
2023-03-02T13:42:59.060Z,8.38
2023-03-02T13:45:30.943Z,7.32
2023-03-02T13:48:02.553Z,7.30
2023-03-02T13:50:33.942Z,19.93
2023-03-02T13:53:07.199Z,8.10
2023-03-02T13:55:36.444Z,9.43
2023-03-02T13:58:04.311Z,8.35
2023-03-02T14:00:34.141Z,8.88
2023-03-02T14:03:02.471Z,8.55
2023-03-02T14:05:33.400Z,9.27
2023-03-02T14:08:03.558Z,11.32
2023-03-02T14:10:31.298Z,8.75
2023-03-02T14:13:05.141Z,8.32
2023-03-02T14:15:34.870Z,9.80
2023-03-02T14:18:02.593Z,8.48
2023-03-02T14:20:32.866Z,7.72
2023-03-02T14:23:03.454Z,9.18
2023-03-02T14:25:32.708Z,9.32
2023-03-02T14:28:00.438Z,11.90
2023-03-02T14:30:28.135Z,8.23
2023-03-02T14:32:55.845Z,8.18
2023-03-02T14:35:25.926Z,8.85
2023-03-02T14:37:53.652Z,10.93
2023-03-02T14:40:26.625Z,9.20
2023-03-02T14:43:02.777Z,9.45
2023-03-02T14:45:31.002Z,7.32
2023-03-02T14:47:58.903Z,9.35
2023-03-02T14:50:26.660Z,8.55
2023-03-02T14:52:56.598Z,9.45
2023-03-02T14:55:28.004Z,8.27
2023-03-02T14:58:00.853Z,11.43
2023-03-02T15:00:28.964Z,9.88
2023-03-02T15:02:56.847Z,8.52
2023-03-02T15:05:24.552Z,8.52
2023-03-02T15:07:53.597Z,8.65
2023-03-02T15:10:23.638Z,12.20
2023-03-02T15:12:51.747Z,9.77
2023-03-02T15:15:20.922Z,9.40
2023-03-02T15:17:48.694Z,8.75
2023-03-02T15:20:17.205Z,9.63
2023-03-02T15:22:45.583Z,10.38
2023-03-02T15:25:13.250Z,8.48
2023-03-02T15:27:41.521Z,10.48
2023-03-02T15:30:12.165Z,8.50
2023-03-02T15:32:41.644Z,7.85
2023-03-02T15:35:09.990Z,10.68
2023-03-02T15:37:37.762Z,8.98
2023-03-02T15:40:06.639Z,11.40
2023-03-02T15:42:37.049Z,10.25
2023-03-02T15:45:05.682Z,10.13
2023-03-02T15:47:37.491Z,9.57
2023-03-02T15:50:07.324Z,10.95
2023-03-02T15:52:35.048Z,14.48
2023-03-02T15:55:02.700Z,12.50
2023-03-02T15:57:30.365Z,11.85
2023-03-02T15:59:58.104Z,13.10
2023-03-02T16:02:25.813Z,13.52
2023-03-02T16:04:53.572Z,13.82
2023-03-02T16:07:22.668Z,13.45
2023-03-02T16:09:51.736Z,12.90
2023-03-02T16:12:23.207Z,12.48
2023-03-02T16:14:50.849Z,13.90
2023-03-02T16:17:19.101Z,13.55
2023-03-02T16:19:46.962Z,11.82
2023-03-02T16:22:14.713Z,12.68
2023-03-02T16:24:43.891Z,13.57
2023-03-02T16:27:11.652Z,13.23
2023-03-02T16:29:39.435Z,12.90
2023-03-02T16:32:08.994Z,13.38
2023-03-02T16:34:36.881Z,14.68
2023-03-02T16:37:04.648Z,14.70
2023-03-02T16:39:32.865Z,15.60
2023-03-02T16:42:01.926Z,13.07
2023-03-02T16:44:29.689Z,17.35
2023-03-02T16:46:57.762Z,22.60
2023-03-02T16:49:25.551Z,15.57
2023-03-02T16:51:58.742Z,19.88
2023-03-02T16:54:26.745Z,14.30
2023-03-02T16:56:54.374Z,14.65
2023-03-02T16:59:23.519Z,16.75
2023-03-02T17:01:51.282Z,17.50
2023-03-02T17:04:21.139Z,15.65
2023-03-02T17:07:00.494Z,17.67
2023-03-02T17:09:29.053Z,19.67
2023-03-02T17:11:56.940Z,18.85
2023-03-02T17:14:26.309Z,18.20
2023-03-02T17:16:54.184Z,19.77
2023-03-02T17:19:21.832Z,17.98
2023-03-02T17:21:49.653Z,18.05
2023-03-02T17:24:17.296Z,18.38
2023-03-02T17:26:46.756Z,17.70
2023-03-02T17:29:14.515Z,19.67
2023-03-02T17:31:43.975Z,20.08
2023-03-02T17:34:12.331Z,20.80
2023-03-02T17:36:43.093Z,20.27
2023-03-02T17:39:10.768Z,23.35
2023-03-02T17:41:38.592Z,20.70
2023-03-02T17:44:06.731Z,20.92
2023-03-02T17:46:34.505Z,23.88
2023-03-02T17:49:04.101Z,21.63
2023-03-02T17:51:31.939Z,22.17
2023-03-02T17:53:59.675Z,21.77
2023-03-02T17:56:28.818Z,21.98
2023-03-02T17:58:57.996Z,20.70
2023-03-02T18:01:26.166Z,21.38
2023-03-02T18:03:54.072Z,22.83
2023-03-02T18:06:23.255Z,19.98
2023-03-02T18:08:54.610Z,25.15
2023-03-02T18:11:24.383Z,21.55
2023-03-02T18:13:54.728Z,20.55
2023-03-02T18:16:22.859Z,21.73
2023-03-02T18:18:57.230Z,20.65
2023-03-02T18:21:26.552Z,21.40
2023-03-02T18:23:54.345Z,19.90
2023-03-02T18:26:22.447Z,17.95
2023-03-02T18:28:50.132Z,20.27
2023-03-02T18:31:20.101Z,20.20
2023-03-02T18:33:49.711Z,17.73
2023-03-02T18:36:17.693Z,17.42
2023-03-02T18:38:46.868Z,18.85
2023-03-02T18:41:15.163Z,19.20
2023-03-02T18:43:43.462Z,21.98
2023-03-02T18:46:19.854Z,19.95
2023-03-02T18:48:49.648Z,20.08
2023-03-02T18:51:17.972Z,21.70
2023-03-02T18:53:47.760Z,19.65
2023-03-02T18:56:15.934Z,19.08
2023-03-02T18:58:43.750Z,19.98
2023-03-02T19:01:12.681Z,17.95
2023-03-02T19:03:41.937Z,19.55
2023-03-02T19:06:09.850Z,18.88
2023-03-02T19:08:37.685Z,19.45
2023-03-02T19:11:07.546Z,21.05
2023-03-02T19:13:35.473Z,22.63
2023-03-02T19:16:03.839Z,19.85
2023-03-02T19:18:32.052Z,21.27
2023-03-02T19:21:00.647Z,19.98
2023-03-02T19:23:28.759Z,21.55
2023-03-02T19:25:56.656Z,21.05
2023-03-02T19:28:26.191Z,19.42
2023-03-02T19:30:54.028Z,22.73
2023-03-02T19:33:24.929Z,23.50
2023-03-02T19:35:53.048Z,26.05
2023-03-02T19:38:22.635Z,22.80
2023-03-02T19:40:50.677Z,21.30
2023-03-02T19:43:20.511Z,23.17
2023-03-02T19:45:55.814Z,23.48
2023-03-02T19:48:23.708Z,23.52
2023-03-02T19:50:52.817Z,24.63
2023-03-02T19:53:20.752Z,26.35
2023-03-02T19:55:48.617Z,26.02
2023-03-02T19:58:19.011Z,24.75
2023-03-02T20:00:51.474Z,25.80
2023-03-02T20:03:19.278Z,27.23
2023-03-02T20:05:47.104Z,28.25
2023-03-02T20:08:16.714Z,28.10
2023-03-02T20:10:46.493Z,26.17
2023-03-02T20:13:14.274Z,28.10
2023-03-02T20:15:44.503Z,27.10
2023-03-02T20:18:16.390Z,29.70
2023-03-02T20:20:45.307Z,27.90
2023-03-02T20:23:13.396Z,27.75
2023-03-02T20:25:41.643Z,29.45
2023-03-02T20:28:11.883Z,31.23
2023-03-02T20:30:44.707Z,29.83
2023-03-02T20:33:15.249Z,28.50
2023-03-02T20:35:45.459Z,30.23
2023-03-02T20:38:18.962Z,30.77
2023-03-02T20:40:46.906Z,30.23
2023-03-02T20:43:14.912Z,31.08
2023-03-02T20:45:45.926Z,32.38
2023-03-02T20:48:15.254Z,33.95
2023-03-02T20:50:43.532Z,33.60
2023-03-02T20:53:11.931Z,34.65
2023-03-02T20:55:40.017Z,35.22
2023-03-02T20:58:07.752Z,33.38
2023-03-02T21:00:36.961Z,36.80
2023-03-02T21:03:05.899Z,37.03
2023-03-02T21:05:37.500Z,39.22
2023-03-02T21:08:05.769Z,27.63
2023-03-02T21:10:36.474Z,41.63
2023-03-02T21:13:05.786Z,37.90
2023-03-02T21:15:34.065Z,39.35
2023-03-02T21:18:02.428Z,44.45
2023-03-02T21:20:33.022Z,41.65
2023-03-02T21:23:02.941Z,43.67
2023-03-02T21:25:30.657Z,42.67
2023-03-02T21:27:58.794Z,44.53
2023-03-02T21:30:29.108Z,46.00
2023-03-02T21:32:57.342Z,44.67
2023-03-02T21:35:25.348Z,45.28
2023-03-02T21:37:57.276Z,46.58
2023-03-02T21:40:32.280Z,45.58
2023-03-02T21:43:00.372Z,49.88
2023-03-02T21:45:28.898Z,51.15
2023-03-02T21:47:56.650Z,51.17
2023-03-02T21:50:27.241Z,51.25
2023-03-02T21:52:56.001Z,51.30
2023-03-02T21:55:23.702Z,54.88
2023-03-02T21:57:52.862Z,50.95
2023-03-02T22:00:23.831Z,54.10
2023-03-02T22:02:51.837Z,55.00
2023-03-02T22:05:20.481Z,52.97
2023-03-02T22:07:48.692Z,60.88
2023-03-02T22:10:27.666Z,60.28
2023-03-02T22:13:05.491Z,57.58
2023-03-02T22:15:33.134Z,57.28
2023-03-02T22:18:00.816Z,57.65
2023-03-02T22:20:29.718Z,73.28
2023-03-02T22:22:58.481Z,73.20
2023-03-02T22:25:26.451Z,82.35
2023-03-02T22:27:55.051Z,75.75
2023-03-02T22:30:24.994Z,80.03
2023-03-02T22:32:52.718Z,83.22
2023-03-02T22:35:23.348Z,87.82
2023-03-02T22:37:52.790Z,96.65
2023-03-02T22:40:30.205Z,86.65
2023-03-02T22:43:10.996Z,83.70
2023-03-02T22:45:41.582Z,89.40
2023-03-02T22:48:15.679Z,92.75
2023-03-02T22:50:45.413Z,93.15
2023-03-02T22:53:29.193Z,90.43
2023-03-02T22:55:59.119Z,96.10
2023-03-02T22:58:32.751Z,88.45
2023-03-02T23:01:02.566Z,88.30
2023-03-02T23:03:39.733Z,99.45
2023-03-02T23:06:29.695Z,92.72
2023-03-02T23:09:00.084Z,87.15
2023-03-02T23:11:28.949Z,92.25
2023-03-02T23:13:57.137Z,82.85
2023-03-02T23:16:28.369Z,86.85
2023-03-02T23:18:59.191Z,84.03
2023-03-02T23:21:29.119Z,87.75
2023-03-02T23:23:57.206Z,79.68
2023-03-02T23:26:24.913Z,86.20
2023-03-02T23:28:52.604Z,83.35
2023-03-02T23:31:20.683Z,87.50
2023-03-02T23:33:49.809Z,97.88
2023-03-02T23:36:21.299Z,96.03
2023-03-02T23:38:49.585Z,92.13
2023-03-02T23:41:18.244Z,97.63
2023-03-02T23:43:46.056Z,92.35
2023-03-02T23:46:14.516Z,95.40
2023-03-02T23:48:42.859Z,94.25
2023-03-02T23:51:12.060Z,96.38
2023-03-02T23:53:39.960Z,87.82
2023-03-02T23:56:08.218Z,90.40
2023-03-02T23:58:35.900Z,87.57
